EVLA/LPX METAR and TAF weather

Enter ICAO airport designator
Station Type Date Time Source
EVLA METAR 2019/07/15 19:50 UTC NOAA

EVLA 151950Z AUTO 20007KT 9999 BKN150/// BKN170/// 16/15 Q1010


Station Type Date Time Source
EVLA Decoded METAR 2019/07/15 19:50 UTC NOAA

Liepaja International Airport, Latvia (EVLA) 56-31N 021-05E
Jul 15, 2019 - 03:50 PM EDT / 2019.07.15 1950 UTC
Wind: from the SSW (200 degrees) at 8 MPH (7 KT):0
Visibility: greater than 7 mile(s):0
Sky conditions: mostly cloudy
Temperature: 60 F (16 C)
Dew Point: 59 F (15 C)
Relative Humidity: 93%
Pressure (altimeter): 29.83 in. Hg (1010 hPa)
ob: EVLA 151950Z AUTO 20007KT 9999 BKN150/// BKN170/// 16/15 Q1010
cycle: 20

Station Type Date Time Source
EVLA TAF 2019/07/15 21:03 UTC NOAA

TAF TAF EVLA 152002Z 1521/1621 21010KT 9999 BKN040
TEMPO 1521/1603 BKN010 SCT020CB
TEMPO 1603/1609 1500 TSRA BKN005 BKN010CB
BECMG 1605/1607 33010KT
TEMPO 1609/1621 SCT015CB

Example: see airport list